Hauptseite
METAR-TAF:

METAR-TAF

Flughäfen :

Zacatecas, Mexiko

Breite: 22-54N, Länge: 102-41W, Höhe: 2140 m

Beobachtung

Neuester Wetterbericht von vor 1 Stunde und 19 Minuten, um 22:40 UTC
Windstille
Temperatur 24°C
Luftfeuchtigkeit 47%
Luftdruck 1022 hPa
Sichtweite: 16.1 km
Durchbrochene Bewölkung in der Höhe von 4000 ft

METAR: MMZC 222240Z E00000KT 10SM BKN040 24/12 A3019 RMK 8/200 HZY

Zeit: 18:59 (23:59 UTC)

Prognose

Neuester Wetterbericht von vor 48 Minuten, um 23:11 UTC
Gültige Prognose vom 23 um 00 UTC bis 24 um 00 UTC
Wind kt aus Nord
Sichtweite: 10 km
Durchbrochene Bewölkung in der Höhe von 4000 ft
Ab 23 um 1900 UTC
Wind 10 kt aus Südwest
Sichtweite: 10 km
Durchbrochene Bewölkung in der Höhe von 4000 ft
Durchbrochene Bewölkung in der Höhe von 20000 ft

TAF: MMZC 222311Z 2300/2400 00000KT P6SM BKN040 TX22/2320Z TN15/2312Z FM231900 22010KT P6SM BKN040 BKN200

Wetterbeobachtungen und Prognosen von mehr als 4000 Flughäfen (METAR und TAF Bericht).

Die verfügbaren Stationen werden durch gelbe und rote Markierungen auf der Karte dargestellt.

Führen Sie die Maus auf sie, um den Namen der Station zu sehen.

Darauf klicken, um die Beobachtung von Wetterbeobachtungen und Prognosen zu sehen.

Um die Karte zu ändern : klicken Sie auf den grünen Tasten mit einem schwarzen Kreuz Zum Vergrößern, auf den grünen Button mit einem Gedankenstrich zu verkleinern, oder auf die grünen Pfeile für benachbarte Karten.


METAR-TAF: